• Join FlightAware (Why Join?)
  • Login
  • US Flag 
01:09AM EDT


 

Airport Tracker/Info


-or-


 

Live Flight TrackerFlight Track Log ✈ GJS3631 ✈ 10-May-2013 ✈ KGRR - KDEN

Flight Track Log - Related Links

Times and Time Zones

All times are in EDT time to prevent confusion due to time zone crossing. See the GJS3631 flight status page for this flight to view local times or setup timezone preferences in your user account.

Time Position Orientation Groundspeed Altitude Reporting Facility
EDT Latitude Longitude Course Direction KTS MPH feet Rate Location/Type
08:32AM 42.8842 -85.4500 270° West 165 190 2,800  Level Chicago Center
08:33AM 42.9267 -85.4000 41° Northeast 245 282 4,400 2,040 Climbing Chicago Center
08:34AM 42.9703 -85.4711 310° West 260 299 7,100 2,700 Climbing Chicago Center
08:35AM 43.0094 -85.5803 296° West 265 305 10,000 2,580 Climbing Chicago Center
08:36AM 43.0431 -85.6756 296° West 277 319 12,500 1,980 Climbing Chicago Center
08:37AM 43.1500 -86.2812 270° West  Level FlightAware Approximate
08:37AM 43.0792 -85.7767 296° West 290 334 14,200  Level Chicago Center
08:38AM 43.1169 -85.8878 295° West 318 366 16,000 1,740 Climbing Chicago Center
08:39AM 43.1561 -86.0008 295° West 334 384 17,800 1,560 Climbing Chicago Center
08:40AM 43.1678 -86.1575 276° West 348 400 19,300 1,200 Climbing Chicago Center
08:41AM 43.1664 -86.2939 269° West 364 419 20,400 1,200 Climbing Chicago Center
08:42AM 43.1642 -86.4400 269° West 382 440 21,900 1,440 Climbing Chicago Center
08:43AM 43.1611 -86.5883 268° West 391 450 23,400 1,320 Climbing Chicago Center
08:44AM 43.1589 -86.7364 269° West 392 451 24,700 1,320 Climbing Chicago Center
08:45AM 43.1539 -86.9169 268° West 397 457 26,200 1,260 Climbing Chicago Center
08:46AM 43.1517 -87.0686 269° West 399 459 27,400 1,080 Climbing Chicago Center
08:47AM 43.1475 -87.2197 268° West 399 459 28,500 1,020 Climbing Chicago Center
08:48AM 43.1442 -87.3872 268° West 398 458 29,600 960 Climbing Chicago Center
08:49AM 43.1397 -87.5389 268° West 398 458 30,600 960 Climbing Chicago Center
08:51AM 43.1350 -87.6922 268° West 401 461 31,600 960 Climbing Chicago Center
08:52AM 43.1300 -87.8439 267° West 398 458 32,600 960 Climbing Chicago Center
08:53AM 43.1261 -87.9953 268° West 396 456 33,600 960 Climbing Chicago Center
08:54AM 43.1206 -88.1458 267° West 393 452 34,600 780 Climbing Chicago Center
08:55AM 43.1156 -88.2953 267° West 389 448 35,300 600 Climbing Chicago Center
08:56AM 43.1053 -88.4722 266° West 395 455 35,900 480 Climbing Chicago Center
08:57AM 43.0953 -88.6247 265° West 397 457 36,400 480 Climbing Chicago Center
08:58AM 43.0861 -88.7808 265° West 405 466 36,900 480 Climbing Chicago Center
08:59AM 43.0775 -88.9350 266° West 405 466 37,400 480 Climbing Chicago Center
09:00AM 43.0683 -89.0886 265° West 404 465 37,900 240 Climbing Chicago Center
09:01AM 43.0572 -89.2436 264° West 406 467 38,000  Climbing Chicago Center
09:02AM 43.0464 -89.3992 265° West 410 472 38,000  Level Chicago Center
09:03AM 43.0339 -89.5856 265° West 419 482 38,000  Level Chicago Center
09:04AM 43.0217 -89.7469 264° West 424 488 38,000  Level Chicago Center
09:05AM 43.0111 -89.9100 265° West 429 494 38,000  Level Chicago Center
09:06AM 43.0000 -90.0642 264° West 433 498 38,000  Level Chicago Center
09:07AM 42.9858 -90.2533 264° West 429 494 38,000  Level Chicago Center
09:08AM 42.9736 -90.4144 264° West 431 496 38,000  Level Chicago Center
09:09AM 42.9622 -90.5747 265° West 429 494 38,000  Level Chicago Center
09:10AM 42.9500 -90.7339 264° West 427 491 38,000  Level Chicago Center
09:11AM 42.9344 -90.9258 264° West 428 493 38,000  Level Chicago Center
09:13AM 42.9183 -91.1172 264° West 429 494 38,000  Level Minneapolis Center
09:14AM 42.9025 -91.3097 264° West 430 495 38,000  Level Minneapolis Center
09:15AM 42.8900 -91.4692 264° West 431 496 38,000  Level Minneapolis Center
09:16AM 42.8775 -91.6283 264° West 435 501 38,000  Level Minneapolis Center
09:17AM 42.8611 -91.7858 262° West 437 503 38,000  Level Minneapolis Center
09:18AM 42.8436 -91.9781 263° West 433 498 38,000  Level Minneapolis Center
09:19AM 42.8294 -92.1389 263° West 433 498 38,000  Level Minneapolis Center
09:20AM 42.8142 -92.3008 263° West 434 499 38,000  Level Minneapolis Center
09:21AM 42.7989 -92.4611 263° West 433 498 38,000  Level Minneapolis Center
09:22AM 42.7836 -92.6200 263° West 428 493 38,000  Level Minneapolis Center
09:23AM 42.7650 -92.8131 263° West 432 497 38,000  Level Minneapolis Center
09:24AM 42.7500 -92.9739 263° West 433 498 38,000  Level Minneapolis Center
09:25AM 42.7331 -93.1344 262° West 433 498 38,000  Level Minneapolis Center
09:26AM 42.7142 -93.3281 263° West 435 501 38,000  Level Minneapolis Center
09:27AM 42.6978 -93.4892 262° West 434 499 38,000  Level Minneapolis Center
09:28AM 42.6844 -93.6156 262° West 430 495 38,000  Level Minneapolis Center
09:29AM 42.6611 -93.8406 262° West 433 498 38,000  Level Minneapolis Center
09:30AM 42.6444 -94.0017 262° West 435 501 38,000  Level Minneapolis Center
09:31AM 42.6264 -94.1622 261° West 435 501 38,000  Level Minneapolis Center
09:32AM 42.6081 -94.3242 261° West 436 502 38,000  Level Minneapolis Center
09:33AM 42.5622 -94.4742 248° West 431 496 38,000  Level Minneapolis Center
09:34AM 42.5108 -94.6494 248° West 434 499 38,000  Level Minneapolis Center
09:35AM 42.4683 -94.8017 249° West 433 498 38,000  Level Minneapolis Center
09:36AM 42.4242 -94.9525 248° West 432 497 38,000  Level Minneapolis Center
09:37AM 42.3808 -95.1036 249° West 432 497 38,000  Level Minneapolis Center
09:38AM 42.3367 -95.2558 249° West 435 501 38,000  Level Minneapolis Center
09:40AM 42.2925 -95.4061 248° West 433 498 38,000  Level Minneapolis Center
09:41AM 42.2383 -95.5853 248° West 431 496 38,000  Level Minneapolis Center
09:42AM 42.1944 -95.7367 249° West 433 498 38,000  Level Minneapolis Center
09:43AM 42.1489 -95.8886 248° West 438 504 38,000  Level Minneapolis Center
09:44AM 42.1044 -96.0403 248° West 438 504 38,000  Level Minneapolis Center
09:45AM 42.0586 -96.1906 248° West 437 503 38,000  Level Minneapolis Center
09:46AM 42.0131 -96.3411 248° West 437 503 38,000  Level Minneapolis Center
09:47AM 41.9675 -96.4911 248° West 437 503 38,000  Level Minneapolis Center
09:48AM 41.9117 -96.6706 247° West 436 502 38,000  Level Minneapolis Center
09:49AM 41.8661 -96.8197 248° West 436 502 38,000  Level Minneapolis Center
09:50AM 41.8186 -96.9689 247° West 437 503 38,000  Level Minneapolis Center
09:51AM 41.7719 -97.1192 247° West 438 504 38,000  Level Minneapolis Center
09:52AM 41.7292 -97.2742 250° West 442 509 38,000  Level Minneapolis Center
09:53AM 41.6897 -97.4292 251° West 442 509 38,000  Level Minneapolis Center
09:54AM 41.6417 -97.6150 251° West 443 510 38,000  Level Minneapolis Center
09:55AM 41.6000 -97.7694 250° West 443 510 38,000  Level Minneapolis Center
09:56AM 41.5583 -97.9253 250° West 444 511 38,000  Level Minneapolis Center
09:57AM 41.5164 -98.0803 250° West 446 513 38,000  Level Minneapolis Center
09:58AM 41.4769 -98.2253 250° West 445 512 38,000  Level Minneapolis Center
09:59AM 41.4269 -98.4100 250° West 444 511 38,000  Level Minneapolis Center
10:00AM 41.3817 -98.5764 250° West 448 516 38,000  Level Minneapolis Center
10:01AM 41.3383 -98.7311 250° West 448 516 38,000  Level Minneapolis Center
10:02AM 41.2947 -98.8858 249° West 447 514 38,000  Level Minneapolis Center
10:03AM 41.2578 -99.0244 251° West 448 516 38,000  Level Denver Center
10:04AM 41.2231 -99.1814 254° West 449 517 38,000  Level Denver Center
10:05AM 41.1922 -99.3414 256° West 450 518 38,000  Level Denver Center
10:06AM 41.1586 -99.5097 255° West 449 517 38,000  Level Denver Center
10:07AM 41.1275 -99.6639 255° West 451 519 38,000  Level Denver Center
10:08AM 41.0917 -99.8428 255° West 450 518 38,000  Level Denver Center
10:09AM 41.0606 -99.9964 255° West 451 519 38,000  Level Denver Center
10:10AM 41.0286 -100.1511 255° West 454 522 38,000  Level Denver Center
10:11AM 40.9911 -100.3314 255° West 456 525 38,000  Level Denver Center
10:12AM 40.9600 -100.4856 255° West 454 522 38,000  Level Denver Center
10:13AM 40.9233 -100.6650 255° West 457 526 38,000  Level Denver Center
10:14AM 40.8881 -100.8261 254° West 460 529 38,000  Level Denver Center
10:15AM 40.8511 -100.9947 254° West 461 531 38,000  Level Denver Center
10:17AM 40.8181 -101.1503 254° West 461 531 38,000  Level Denver Center
10:18AM 40.7736 -101.3575 254° West 462 532 38,000  Level Denver Center
10:19AM 40.7336 -101.5389 254° West 462 532 38,000  Level Denver Center
10:20AM 40.7044 -101.6686 254° West 463 533 38,000  Level Denver Center
10:21AM 40.6647 -101.8500 254° West 463 533 38,000  Level Denver Center
10:22AM 40.6239 -102.0325 254° West 463 533 38,000  Level Denver Center
10:23AM 40.5883 -102.1906 254° West 470 541 38,000  Level Denver Center
10:24AM 40.5464 -102.3719 253° West 467 537 38,000 -600 Level Denver Center
10:25AM 40.5122 -102.5256 254° West 459 528 36,800 -1,620 Descending Denver Center
10:26AM 40.4833 -102.6531 253° West 457 526 34,800 -2,340 Descending Denver Center
10:27AM 40.4364 -102.8544 253° West 452 520 31,600 -2,880 Descending Denver Center
10:28AM 40.3914 -103.0483 253° West 437 503 28,400 -2,640 Descending Denver Center
10:29AM 40.3581 -103.1883 253° West 423 487 26,200 -2,220 Descending Denver Center
10:30AM 40.3208 -103.3461 253° West 407 468 23,900 -2,280 Descending Denver Center
10:31AM 40.2867 -103.4917 253° West 398 458 21,600 -2,100 Descending Denver Center
10:32AM 40.2561 -103.6194 253° West 388 447 19,600 -1,980 Descending Denver Center
10:33AM 40.2214 -103.7611 252° West 388 447 17,600 -1,860 Descending Denver Center
10:34AM 40.1881 -103.8825 250° West 356 410 15,800 -1,500 Descending Denver Center
10:35AM 40.1350 -103.9950 238° Southwest 339 390 14,600 -900 Descending Denver Center
10:36AM 40.0856 -104.1000 238° Southwest 340 391 14,000 -660 Descending Denver Center
10:37AM 40.0083 -104.1564 209° Southwest 335 386 13,300 -540 Descending Denver Center
10:38AM 39.9250 -104.1764 190° South 291 335 13,000 -360 Descending Denver Center
10:39AM 39.8633 -104.1917 191° South 237 273 12,600 -780 Descending Denver Center
10:40AM 39.8681 -104.2631 275° West 202 232 11,400 -1,260 Descending Denver Center
10:41AM 39.8744 -104.3317 277° West 195 224 10,000 -1,560 Descending Denver Center
10:42AM 39.8833 -104.3833 283° West 212 244 8,700 -1,380 Descending Denver TRACON
10:43AM 39.8833 -104.4667 270° West 208 239 7,700 -1,080 Descending Denver TRACON
10:44AM 39.8833 -104.5333 270° West 182 209 6,600 -960 Descending Denver TRACON
10:45AM 39.8833 -104.5833 270° West 140 161 5,800 -540 Descending Denver TRACON
10:47AM 39.8775 -104.6419 263° West 101 116 5,300 -360 Descending Denver Center
10:49AM 39.8500 -104.6667 259° West  Level FlightAware Approximate
10:56AM 39.8617 -104.6732 259° West  Level Estimated